Aviation Digital Data Service (ADDS)

Output produced by METARs form (0029 UTC 24 May 2017)
found at http://aviationweather.gov/adds/metars/
 
KSNS 232353Z 28009KT 10SM OVC011 16/11 A2998 RMK AO2 SLP162 T01560111 10222 20156 58003
KMRY 240019Z 27005KT 10SM SCT011 15/11 A2998 RMK AO2 T01500111
KSJC 232353Z 30012KT 10SM FEW060 FEW100 24/14 A2992 RMK AO2 SLP129 T02390139 10256 20211 58003
KRHV 232347Z 31008KT 10SM FEW050 28/12 A2993 RMK EST WIND
KSFO 232356Z 30020KT 10SM FEW008 FEW200 17/10 A2993 RMK AO2 SLP134 T01720100 10206 20167 56006
KLVK 232353Z 28013KT 10SM CLR 28/10 A2988 RMK AO2 SLP115 T02830100 10333 20250 56003
KMCE 232353Z AUTO 32009KT 10SM CLR 37/09 A2980 RMK AO2 SLP088 T03720094 10378 20300 56017